Time;durP1;ratioP1;P1;durP2;ratioP2;P2;SDS_P1;SDS_P2;PMS_P1;PMS_P2;Temp;Humidity;BMP_temperature;BMP_pressure;BME280_temperature;BME280_humidity;BME280_pressure;Samples;Min_cycle;Max_cycle;Signal;HPM_P1;HPM_P2
2021/10/04 00:01:05;;;;;;;27.60;8.80;;;;;;;3.66;100.00;102308.92;1622785;88;22319;-84
2021/10/04 00:03:32;;;;;;;22.87;8.58;;;;;;;3.66;100.00;102305.75;1622843;88;21579;-84
2021/10/04 00:05:59;;;;;;;23.22;8.88;;;;;;;3.72;100.00;102305.56;1622847;88;21747;-84
2021/10/04 00:08:25;;;;;;;23.92;9.20;;;;;;;3.75;100.00;102306.05;1622623;88;21965;-85
2021/10/04 00:10:52;;;;;;;22.48;9.60;;;;;;;3.78;100.00;102302.20;1622763;88;21019;-84
2021/10/04 00:13:18;;;;;;;27.35;10.70;;;;;;;3.80;100.00;102302.88;1622811;88;21090;-84
2021/10/04 00:15:44;;;;;;;20.10;9.25;;;;;;;3.81;100.00;102300.52;1622778;88;21052;-85
2021/10/04 00:18:10;;;;;;;28.00;9.55;;;;;;;3.80;100.00;102305.54;1622771;88;21030;-84
2021/10/04 00:20:36;;;;;;;25.52;9.80;;;;;;;3.79;100.00;102307.34;1622797;88;21148;-84
2021/10/04 00:23:02;;;;;;;22.05;9.30;;;;;;;3.78;100.00;102307.54;1622593;88;20995;-85
2021/10/04 00:25:28;;;;;;;22.20;8.73;;;;;;;3.78;100.00;102304.87;1622892;88;20980;-84
2021/10/04 00:27:54;;;;;;;32.88;10.00;;;;;;;3.76;100.00;102306.36;1628739;87;20915;-84
2021/10/04 00:30:20;;;;;;;26.17;9.65;;;;;;;3.74;100.00;102308.90;1639023;87;21010;-84
2021/10/04 00:32:50;;;;;;;23.67;9.80;;;;;;;3.72;100.00;102305.05;1638483;87;21151;-84
2021/10/04 00:35:19;;;;;;;23.25;9.00;;;;;;;3.72;100.00;102305.56;1635288;87;21108;-84
2021/10/04 00:37:45;;;;;;;23.77;9.70;;;;;;;3.69;100.00;102315.23;1652932;83;21066;-84
2021/10/04 00:40:17;;;;;;;24.92;9.70;;;;;;;3.67;100.00;102313.23;1699838;83;21019;-84
2021/10/04 00:42:43;;;;;;;23.05;8.63;;;;;;;3.68;100.00;102313.55;1700211;83;21007;-84
2021/10/04 00:45:12;;;;;;;26.50;9.98;;;;;;;3.68;100.00;102309.08;1699951;83;21379;-84
2021/10/04 00:47:39;;;;;;;23.55;9.45;;;;;;;3.65;100.00;102313.42;1700082;83;21160;-84
2021/10/04 00:50:09;;;;;;;25.10;8.90;;;;;;;3.63;100.00;102294.09;1699586;83;21014;-84
2021/10/04 00:52:36;;;;;;;24.65;9.45;;;;;;;3.62;100.00;102304.44;1699919;83;21105;-84
2021/10/04 00:55:05;;;;;;;24.40;9.05;;;;;;;3.61;100.00;102305.42;1699885;83;21004;-84
2021/10/04 00:57:31;;;;;;;24.07;10.70;;;;;;;3.59;100.00;102298.12;1699933;83;21154;-84
2021/10/04 00:59:58;;;;;;;29.70;9.15;;;;;;;3.55;100.00;102305.59;1699745;83;21023;-84
2021/10/04 01:02:24;;;;;;;19.95;8.53;;;;;;;3.52;100.00;102302.45;1673897;84;21059;-84
2021/10/04 01:04:50;;;;;;;24.80;9.25;;;;;;;3.48;100.00;102300.63;1699840;83;21046;-84
2021/10/04 01:07:16;;;;;;;22.93;9.73;;;;;;;3.46;100.00;102298.63;1699871;83;20986;-84
2021/10/04 01:09:42;;;;;;;20.72;9.10;;;;;;;3.43;100.00;102298.97;1699603;83;21122;-84
2021/10/04 01:12:08;;;;;;;20.95;8.35;;;;;;;3.39;100.00;102302.99;1699879;83;21542;-84
2021/10/04 01:14:35;;;;;;;20.30;8.85;;;;;;;3.37;100.00;102299.15;1699870;83;21070;-83
2021/10/04 01:17:00;;;;;;;24.32;8.75;;;;;;;3.37;100.00;102301.81;1699681;83;21097;-84
2021/10/04 01:19:26;;;;;;;19.30;8.63;;;;;;;3.35;100.00;102297.66;1699982;83;21289;-84
2021/10/04 01:21:52;;;;;;;19.32;8.63;;;;;;;3.35;100.00;102298.98;1699997;84;21162;-84
2021/10/04 01:24:18;;;;;;;21.70;8.13;;;;;;;3.35;100.00;102298.98;1699500;83;20899;-84
2021/10/04 01:26:45;;;;;;;27.13;10.88;;;;;;;3.35;100.00;102305.64;1699841;83;20887;-85
2021/10/04 01:29:11;;;;;;;30.62;12.40;;;;;;;3.34;100.00;102305.33;1693866;83;21046;-84
2021/10/04 01:31:37;;;;;;;28.70;11.73;;;;;;;3.32;100.00;102308.66;1692689;83;21542;-85
2021/10/04 01:34:06;;;;;;;22.00;9.38;;;;;;;3.30;100.00;102302.68;1665010;83;21123;-85
2021/10/04 01:36:33;;;;;;;23.12;9.45;;;;;;;3.26;100.00;102298.67;1692281;83;21003;-84
2021/10/04 01:39:00;;;;;;;24.63;9.70;;;;;;;3.22;100.00;102303.52;1692485;83;21456;-84
2021/10/04 01:41:26;;;;;;;22.65;9.28;;;;;;;3.21;100.00;102305.00;1688118;83;21556;-84
2021/10/04 01:43:54;;;;;;;21.95;9.23;;;;;;;3.19;100.00;102310.51;1692398;83;21132;-84
2021/10/04 01:46:21;;;;;;;20.75;9.68;;;;;;;3.19;100.00;102308.67;1692257;83;21744;-84
2021/10/04 01:48:48;;;;;;;24.27;9.30;;;;;;;3.18;100.00;102311.02;1692138;84;21511;-84
2021/10/04 01:51:14;;;;;;;21.05;9.10;;;;;;;3.18;100.00;102304.86;1692388;83;21563;-84
2021/10/04 01:53:40;;;;;;;25.27;9.65;;;;;;;3.16;100.00;102306.34;1692380;84;21153;-84
2021/10/04 01:56:06;;;;;;;19.82;8.80;;;;;;;3.16;100.00;102306.85;1692421;83;21055;-84
2021/10/04 01:58:32;;;;;;;23.12;9.45;;;;;;;3.15;100.00;102306.53;1692307;83;21118;-84
2021/10/04 02:01:02;;;;;;;22.73;8.95;;;;;;;3.17;100.00;102305.84;1692259;83;21416;-83
2021/10/04 02:03:28;;;;;;;24.52;10.85;;;;;;;3.18;100.00;102299.53;1692431;83;21054;-84
2021/10/04 02:05:56;;;;;;;24.95;10.18;;;;;;;3.18;100.00;102305.69;1692445;83;21593;-84
2021/10/04 02:08:23;;;;;;;31.93;9.83;;;;;;;3.22;100.00;102306.17;1692301;83;22534;-85
2021/10/04 02:10:49;;;;;;;24.92;9.75;;;;;;;3.25;100.00;102309.01;1692448;84;21674;-85
2021/10/04 02:13:16;;;;;;;22.98;10.60;;;;;;;3.27;100.00;102312.34;1692282;83;21078;-84
2021/10/04 02:15:42;;;;;;;31.02;15.30;;;;;;;3.27;100.00;102311.84;1692333;83;21011;-85
2021/10/04 02:18:11;;;;;;;35.65;14.63;;;;;;;3.28;100.00;102320.16;1692252;83;21117;-84
2021/10/04 02:20:41;;;;;;;23.83;12.05;;;;;;;3.28;100.00;102321.99;1692442;83;21101;-83
2021/10/04 02:23:10;;;;;;;23.10;10.43;;;;;;;3.26;100.00;102329.31;1692323;83;21949;-84
2021/10/04 02:25:43;;;;;;;25.55;9.73;;;;;;;3.21;100.00;102326.31;1692027;83;21110;-85
2021/10/04 02:28:12;;;;;;;20.68;9.35;;;;;;;3.17;100.00;102323.98;1692141;83;21617;-84
2021/10/04 02:30:38;;;;;;;20.40;9.85;;;;;;;3.16;100.00;102321.50;1692308;83;21015;-83
2021/10/04 02:33:05;;;;;;;20.68;10.13;;;;;;;3.13;100.00;102320.00;1692356;83;21003;-83
2021/10/04 02:35:31;;;;;;;22.05;8.65;;;;;;;3.12;100.00;102322.34;1692395;83;21146;-84
2021/10/04 02:37:58;;;;;;;22.52;8.55;;;;;;;3.09;100.00;102321.35;1692353;83;21535;-83
2021/10/04 02:40:25;;;;;;;23.65;9.68;;;;;;;3.06;100.00;102321.69;1692452;83;21483;-83
2021/10/04 02:42:53;;;;;;;20.40;9.50;;;;;;;3.04;100.00;102326.34;1692380;83;21547;-83
2021/10/04 02:45:20;;;;;;;24.77;10.38;;;;;;;3.01;100.00;102327.18;1692498;83;20944;-83
2021/10/04 02:47:49;;;;;;;24.57;10.75;;;;;;;3.00;100.00;102329.48;1692462;83;21803;-83
2021/10/04 02:50:19;;;;;;;20.80;9.53;;;;;;;2.97;100.00;102326.66;1692362;83;21034;-83
2021/10/04 02:52:45;;;;;;;20.15;9.25;;;;;;;2.97;100.00;102327.98;1692318;83;21074;-83
2021/10/04 02:55:12;;;;;;;21.55;9.03;;;;;;;2.95;100.00;102327.34;1692306;83;21575;-83
2021/10/04 02:57:38;;;;;;;24.85;10.00;;;;;;;2.90;100.00;102327.83;1691787;83;21011;-83
2021/10/04 03:00:09;;;;;;;27.90;11.38;;;;;;;2.90;100.00;102330.99;1692594;83;21105;-83
2021/10/04 03:02:35;;;;;;;22.17;10.32;;;;;;;2.92;100.00;102330.34;1634712;85;21078;-83
2021/10/04 03:05:02;;;;;;;27.40;10.53;;;;;;;2.94;100.00;102329.66;1657414;85;21210;-84
2021/10/04 03:07:27;;;;;;;20.52;8.83;;;;;;;2.94;100.00;102331.84;1657169;85;21153;-83
2021/10/04 03:09:53;;;;;;;18.35;8.13;;;;;;;2.93;100.00;102337.31;1657417;85;20931;-83
2021/10/04 03:12:20;;;;;;;19.60;8.48;;;;;;;2.91;100.00;102341.49;1657382;85;21715;-84
2021/10/04 03:14:46;;;;;;;18.77;8.20;;;;;;;2.91;100.00;102341.49;1657408;85;21140;-83
2021/10/04 03:17:12;;;;;;;21.07;8.28;;;;;;;2.92;100.00;102337.83;1657285;85;21606;-83
2021/10/04 03:19:38;;;;;;;18.75;8.68;;;;;;;2.94;100.00;102341.16;1657424;85;21078;-83
2021/10/04 03:22:05;;;;;;;23.77;8.75;;;;;;;2.97;100.00;102338.64;1657307;85;21024;-83
2021/10/04 03:24:32;;;;;;;44.77;18.10;;;;;;;2.98;100.00;102336.83;1657128;85;21087;-88
2021/10/04 03:26:59;;;;;;;62.53;24.52;;;;;;;3.03;100.00;102337.14;1657249;85;21082;-84
2021/10/04 03:29:25;;;;;;;50.15;19.30;;;;;;;3.04;100.00;102341.49;1652553;85;21098;-84
2021/10/04 03:31:51;;;;;;;37.28;14.87;;;;;;;3.06;100.00;102346.13;1649769;87;20939;-83
2021/10/04 03:34:17;;;;;;;37.78;16.62;;;;;;;3.05;100.00;102346.63;1649647;87;20889;-83
2021/10/04 03:36:44;;;;;;;27.90;12.82;;;;;;;3.06;100.00;102340.80;1649331;87;22075;-83
2021/10/04 03:39:10;;;;;;;25.88;11.53;;;;;;;3.05;100.00;102343.14;1649368;87;21571;-83
2021/10/04 03:41:36;;;;;;;21.50;9.08;;;;;;;3.04;100.00;102344.16;1649826;87;21098;-83
2021/10/04 03:44:04;;;;;;;25.25;9.15;;;;;;;3.01;100.00;102350.64;1649780;87;20896;-83
2021/10/04 03:46:31;;;;;;;23.02;8.58;;;;;;;3.01;100.00;102354.63;1649667;87;21102;-83
2021/10/04 03:48:57;;;;;;;18.40;7.53;;;;;;;3.04;100.00;102356.97;1649760;87;21079;-83
2021/10/04 03:51:23;;;;;;;22.70;8.53;;;;;;;3.07;100.00;102358.47;1649450;87;21481;-83
2021/10/04 03:53:49;;;;;;;19.62;8.08;;;;;;;3.09;100.00;102353.31;1649945;87;20885;-83
2021/10/04 03:56:15;;;;;;;20.00;8.45;;;;;;;3.15;100.00;102357.14;1649393;87;21067;-83
2021/10/04 03:58:41;;;;;;;22.35;9.18;;;;;;;3.18;100.00;102357.63;1650047;87;21115;-83
2021/10/04 04:01:07;;;;;;;29.00;10.95;;;;;;;3.23;100.00;102353.12;1649781;87;21981;-83
2021/10/04 04:03:33;;;;;;;25.43;10.10;;;;;;;3.30;100.00;102355.97;1649749;87;21007;-83
2021/10/04 04:05:59;;;;;;;27.40;10.13;;;;;;;3.36;100.00;102353.45;1658253;86;20964;-83
2021/10/04 04:08:26;;;;;;;21.50;9.03;;;;;;;3.44;100.00;102353.09;1665292;85;21007;-83
2021/10/04 04:10:52;;;;;;;22.15;8.93;;;;;;;3.48;100.00;102351.27;1665500;85;21063;-83
2021/10/04 04:13:18;;;;;;;19.82;8.15;;;;;;;3.55;100.00;102351.42;1665394;85;21033;-83
2021/10/04 04:15:44;;;;;;;22.50;8.85;;;;;;;3.61;100.00;102350.23;1665469;86;20987;-83
2021/10/04 04:18:10;;;;;;;26.52;9.25;;;;;;;3.70;100.00;102356.88;1665089;85;20999;-83
2021/10/04 04:20:36;;;;;;;32.67;11.25;;;;;;;3.79;100.00;102356.68;1665265;85;21082;-84
2021/10/04 04:23:02;;;;;;;34.03;11.75;;;;;;;3.91;100.00;102361.65;1665541;85;21003;-83
2021/10/04 04:25:28;;;;;;;26.27;10.78;;;;;;;3.99;100.00;102350.95;1665068;85;21087;-83
2021/10/04 04:27:58;;;;;;;28.67;10.40;;;;;;;4.24;100.00;102352.53;1665499;86;21149;-83
2021/10/04 04:30:21;;;;;;;23.05;9.23;;;;;;;4.24;100.00;102352.53;1686538;83;21078;-82
2021/10/04 04:32:47;;;;;;;22.15;8.85;;;;;;;4.42;100.00;102359.45;1692215;83;20911;-83
2021/10/04 04:35:13;;;;;;;28.23;10.10;;;;;;;4.62;100.00;102352.66;1692242;83;21604;-83
2021/10/04 04:37:40;;;;;;;25.23;9.65;;;;;;;4.94;100.00;102350.73;1692480;83;21076;-84
2021/10/04 04:40:13;;;;;;;22.75;9.08;;;;;;;5.62;100.00;102357.00;1692268;83;21027;-83
2021/10/04 04:42:42;;;;;;;24.57;8.30;;;;;;;7.16;100.00;102353.75;1692660;83;21054;-82
2021/10/04 04:45:11;;;;;;;17.17;7.50;;;;;;;9.00;100.00;102345.44;1691975;83;21011;-83
2021/10/04 04:47:37;;;;;;;23.67;7.72;;;;;;;10.43;100.00;102344.70;1692322;83;21550;-83
2021/10/04 04:50:06;;;;;;;17.00;8.05;;;;;;;11.45;100.00;102340.54;1670133;84;21062;-83
2021/10/04 04:52:32;;;;;;;17.12;7.50;;;;;;;12.55;100.00;102339.67;1664351;84;21003;-84
2021/10/04 04:54:58;;;;;;;15.18;8.20;;;;;;;13.50;100.00;102345.05;1659821;84;20982;-84
2021/10/04 04:57:25;;;;;;;16.23;8.15;;;;;;;14.20;99.91;102345.96;1660055;84;21378;-84
2021/10/04 04:59:52;;;;;;;11.50;6.90;;;;;;;14.78;91.02;102341.38;1664779;84;21011;-84
2021/10/04 05:02:19;;;;;;;16.00;8.50;;;;;;;15.28;80.68;102335.14;1664064;84;22693;-84
2021/10/04 05:04:45;;;;;;;13.48;7.37;;;;;;;15.76;72.27;102340.46;1629631;84;21039;-85
2021/10/04 05:07:13;;;;;;;11.05;6.15;;;;;;;16.26;67.06;102344.34;1664419;84;21070;-84
2021/10/04 05:09:39;;;;;;;15.18;6.33;;;;;;;16.83;63.39;102338.16;1664200;85;21420;-85
2021/10/04 05:12:06;;;;;;;12.85;6.47;;;;;;;17.40;61.54;102342.94;1664536;84;21003;-85
2021/10/04 05:14:32;;;;;;;13.83;6.53;;;;;;;18.35;60.12;102353.75;1664332;85;21003;-86
2021/10/04 05:16:58;;;;;;;15.78;6.85;;;;;;;19.34;54.82;102348.93;1664478;84;21313;-86
2021/10/04 05:19:24;;;;;;;15.65;6.55;;;;;;;19.40;50.43;102351.92;1615687;88;21647;-85
2021/10/04 05:21:50;;;;;;;15.40;6.87;;;;;;;19.57;47.10;102348.89;1612123;87;20990;-86
2021/10/04 05:24:16;;;;;;;11.43;6.30;;;;;;;19.63;46.88;102346.41;1615734;88;21135;-86
2021/10/04 05:26:43;;;;;;;12.98;6.85;;;;;;;19.95;46.43;102347.42;1615814;88;21983;-86
2021/10/04 05:29:09;;;;;;;11.57;6.50;;;;;;;20.34;45.07;102350.78;1614223;87;21611;-87
2021/10/04 05:31:35;;;;;;;11.18;6.17;;;;;;;20.54;42.88;102346.32;1624731;87;21154;-86
2021/10/04 05:34:02;;;;;;;14.15;7.03;;;;;;;19.90;42.09;102347.98;1625061;87;20925;-86
2021/10/04 05:36:31;;;;;;;12.35;6.55;;;;;;;19.73;42.38;102352.42;1624721;87;21024;-87
2021/10/04 05:38:57;;;;;;;11.40;5.92;;;;;;;19.93;41.67;102344.69;1624801;87;21181;-86
2021/10/04 05:41:23;;;;;;;13.43;5.90;;;;;;;19.55;41.80;102351.63;1624998;88;21191;-86
2021/10/04 05:43:49;;;;;;;11.68;5.83;;;;;;;19.44;43.21;102348.93;1642186;84;21568;-86
2021/10/04 05:46:15;;;;;;;18.82;6.67;;;;;;;20.34;42.80;102349.41;1667417;84;20877;-86
2021/10/04 05:48:41;;;;;;;13.68;5.50;;;;;;;20.92;42.79;102354.81;1667254;84;20905;-86
2021/10/04 05:51:09;;;;;;;11.35;5.30;;;;;;;21.49;40.00;102357.31;1667154;86;21980;-87
2021/10/04 05:53:35;;;;;;;12.13;5.10;;;;;;;21.39;40.91;102363.73;1666754;84;21123;-89
2021/10/04 05:56:01;;;;;;;8.43;5.20;;;;;;;21.95;39.34;102367.78;1667043;84;21579;-88
2021/10/04 05:58:28;;;;;;;11.50;5.65;;;;;;;22.12;38.37;102369.48;1666972;84;21068;-89
2021/10/04 06:00:54;;;;;;;11.93;5.47;;;;;;;21.82;37.55;102369.28;1667309;84;22210;-91
2021/10/04 06:03:20;;;;;;;8.28;5.10;;;;;;;22.23;39.32;102370.17;1666760;84;22080;-92
2021/10/04 06:05:47;;;;;;;12.00;5.47;;;;;;;22.40;36.13;102367.73;1667155;84;21062;-89
2021/10/04 06:08:13;;;;;;;5.87;4.45;;;;;;;22.02;37.95;102370.97;1667139;85;21079;-89
2021/10/04 06:10:39;;;;;;;9.03;5.10;;;;;;;22.77;38.74;102373.54;1666927;84;20964;-90
2021/10/04 06:13:05;;;;;;;7.80;5.03;;;;;;;23.32;35.88;102380.59;1666783;84;21686;-90
2021/10/04 06:15:31;;;;;;;7.25;4.47;;;;;;;23.85;35.31;102371.90;1667310;86;21026;-88
2021/10/04 06:17:57;;;;;;;10.20;5.17;;;;;;;24.10;34.63;102371.12;1666963;84;21154;-88
2021/10/04 06:20:23;;;;;;;8.28;4.70;;;;;;;24.05;32.88;102368.48;1667292;84;21574;-89
2021/10/04 06:22:50;;;;;;;12.63;5.33;;;;;;;23.74;33.61;102379.57;1667072;84;20917;-88
2021/10/04 06:25:18;;;;;;;8.90;5.87;;;;;;;24.21;32.45;102369.80;1666829;84;21075;-88
2021/10/04 06:27:46;;;;;;;9.20;5.33;;;;;;;24.18;33.27;102366.28;1667017;84;21205;-90
2021/10/04 06:30:14;;;;;;;6.47;4.62;;;;;;;24.72;31.34;102370.02;1665366;84;21059;-90
2021/10/04 06:32:40;;;;;;;8.58;4.67;;;;;;;24.23;31.13;102364.20;1664426;84;21170;-90
2021/10/04 06:35:07;;;;;;;8.63;4.37;;;;;;;24.10;30.48;102369.76;1637612;84;21058;-89
2021/10/04 06:37:33;;;;;;;8.80;4.72;;;;;;;24.06;30.30;102373.70;1664409;84;21437;-91
2021/10/04 06:39:59;;;;;;;7.47;4.28;;;;;;;24.23;31.66;102369.70;1664476;84;21101;-90
2021/10/04 06:42:25;;;;;;;7.22;4.72;;;;;;;24.87;30.87;102370.20;1664562;84;20888;-87
2021/10/04 06:44:52;;;;;;;12.15;5.58;;;;;;;24.99;29.81;102373.77;1664535;84;21003;-90
2021/10/04 06:47:19;;;;;;;11.78;5.78;;;;;;;24.55;28.92;102380.33;1664387;84;21074;-91
2021/10/04 06:49:45;;;;;;;8.83;5.05;;;;;;;24.81;28.39;102375.03;1664223;86;21104;-89
2021/10/04 06:52:11;;;;;;;15.28;6.20;;;;;;;24.63;28.76;102378.22;1664401;84;21180;-86
2021/10/04 06:54:37;;;;;;;15.70;5.53;;;;;;;24.58;28.20;102381.66;1664064;84;21054;-90
2021/10/04 06:57:03;;;;;;;15.98;5.80;;;;;;;24.69;28.19;102382.48;1664471;84;20883;-93
2021/10/04 06:59:29;;;;;;;26.55;5.67;;;;;;;24.73;27.79;102379.09;1664500;84;21574;-86
2021/10/04 07:01:56;;;;;;;13.28;5.40;;;;;;;25.07;27.90;102380.73;1664331;84;21014;-86
2021/10/04 07:04:22;;;;;;;23.35;9.35;;;;;;;25.17;27.05;102376.91;1664045;85;21201;-87
2021/10/04 07:06:48;;;;;;;28.52;9.23;;;;;;;24.95;26.69;102376.92;1664345;85;21093;-87
2021/10/04 07:09:14;;;;;;;23.20;8.75;;;;;;;24.83;26.81;102383.81;1664274;84;21550;-86
2021/10/04 07:11:40;;;;;;;19.73;7.17;;;;;;;24.37;26.97;102379.33;1664693;84;21091;-86
2021/10/04 07:14:06;;;;;;;14.35;4.05;;;;;;;24.45;27.33;102378.63;1664673;84;20852;-84
2021/10/04 07:16:32;;;;;;;16.80;4.53;;;;;;;24.87;26.31;102378.48;1664479;84;21476;-85
2021/10/04 07:18:58;;;;;;;22.70;5.85;;;;;;;24.95;26.49;102379.68;1664374;84;20967;-86
2021/10/04 07:21:24;;;;;;;24.15;9.33;;;;;;;25.21;26.30;102380.69;1686996;83;21676;-85
2021/10/04 07:23:50;;;;;;;22.98;7.85;;;;;;;25.89;26.77;102377.20;1692364;83;20892;-87
2021/10/04 07:26:15;;;;;;;11.75;4.90;;;;;;;27.01;25.52;102375.64;1692398;83;21006;-81
2021/10/04 07:28:41;;;;;;;25.75;5.53;;;;;;;26.98;24.87;102370.77;1692824;83;21605;-80
2021/10/04 07:31:08;;;;;;;18.82;5.10;;;;;;;27.10;23.85;102372.28;1672917;84;20950;-81
2021/10/04 07:33:34;;;;;;;8.65;5.40;;;;;;;26.86;24.19;102376.97;1620613;87;21079;-79
2021/10/04 07:36:02;;;;;;;19.00;7.05;;;;;;;27.02;24.29;102372.30;1620696;88;20866;-81
2021/10/04 07:38:28;;;;;;;20.92;7.15;;;;;;;27.13;24.45;102376.35;1620157;88;21056;-81
2021/10/04 07:40:54;;;;;;;13.98;4.20;;;;;;;27.49;24.33;102377.89;1620730;88;21960;-81
2021/10/04 07:43:20;;;;;;;18.40;6.25;;;;;;;27.66;23.11;102381.17;1620629;88;21200;-82
2021/10/04 07:45:46;;;;;;;23.18;8.85;;;;;;;27.49;23.80;102382.05;1599227;88;21039;-82
2021/10/04 07:48:12;;;;;;;10.80;5.08;;;;;;;27.50;23.31;102373.97;1620613;88;21053;-81
2021/10/04 07:50:38;;;;;;;18.15;6.37;;;;;;;27.74;23.19;102381.70;1620720;88;21750;-81
2021/10/04 07:53:04;;;;;;;24.37;8.50;;;;;;;27.75;22.90;102383.31;1599177;88;21561;-81
2021/10/04 07:55:30;;;;;;;25.20;7.85;;;;;;;27.84;22.94;102384.92;1620699;88;20885;-81
2021/10/04 07:57:56;;;;;;;11.78;3.52;;;;;;;27.16;22.76;102375.14;1639112;86;20892;-81
2021/10/04 08:00:22;;;;;;;10.63;4.65;;;;;;;26.87;22.95;102375.82;1668706;86;20946;-81
2021/10/04 08:02:48;;;;;;;7.83;4.47;;;;;;;26.70;22.80;102372.49;1668720;85;21054;-81
2021/10/04 08:05:14;;;;;;;8.00;3.55;;;;;;;26.63;23.64;102376.34;1668733;86;21134;-81
2021/10/04 08:07:41;;;;;;;13.18;4.22;;;;;;;26.82;23.47;102371.83;1668672;85;21046;-81
2021/10/04 08:10:09;;;;;;;9.15;4.65;;;;;;;26.92;22.67;102375.66;1668704;85;21157;-81
2021/10/04 08:12:36;;;;;;;9.53;4.67;;;;;;;26.79;23.33;102369.72;1668827;86;21597;-80
2021/10/04 08:15:05;;;;;;;5.45;3.25;;;;;;;26.86;22.53;102373.39;1668823;86;21045;-81
2021/10/04 08:17:31;;;;;;;6.55;3.00;;;;;;;26.07;22.63;102378.05;1668370;86;21140;-82
2021/10/04 08:19:58;;;;;;;9.28;4.47;;;;;;;26.29;23.05;102369.61;1668603;85;20947;-81
2021/10/04 08:22:25;;;;;;;11.25;4.97;;;;;;;26.68;22.77;102367.07;1666116;85;21667;-82
2021/10/04 08:24:51;;;;;;;18.87;5.12;;;;;;;26.90;23.14;102367.44;1668766;85;21086;-80
2021/10/04 08:27:16;;;;;;;8.30;4.28;;;;;;;27.23;22.17;102367.70;1668836;85;20975;-81
2021/10/04 08:29:42;;;;;;;8.28;2.77;;;;;;;26.93;22.81;102365.40;1668724;83;21767;-81
2021/10/04 08:32:09;;;;;;;4.17;2.77;;;;;;;26.86;22.38;102368.67;1668635;85;21038;-81
2021/10/04 08:34:35;;;;;;;5.53;2.90;;;;;;;26.39;22.95;102366.31;1668666;85;21051;-81
2021/10/04 08:37:01;;;;;;;7.15;3.17;;;;;;;26.43;22.29;102369.46;1668817;85;21061;-81
2021/10/04 08:39:27;;;;;;;9.08;2.98;;;;;;;26.22;22.16;102358.80;1668894;86;21052;-81
2021/10/04 08:41:54;;;;;;;7.53;2.72;;;;;;;26.26;22.56;102362.53;1669020;85;21825;-82
2021/10/04 08:44:20;;;;;;;7.50;2.77;;;;;;;26.07;22.97;102355.94;1668333;85;20936;-82
2021/10/04 08:46:47;;;;;;;13.48;3.00;;;;;;;26.26;22.71;102359.20;1668663;85;21067;-82
2021/10/04 08:49:16;;;;;;;7.95;2.62;;;;;;;26.23;22.90;102355.70;1668691;85;21078;-83
2021/10/04 08:51:44;;;;;;;6.25;2.85;;;;;;;26.10;22.54;102355.87;1668872;85;21077;-82
2021/10/04 08:54:11;;;;;;;8.35;3.22;;;;;;;25.70;23.00;102358.65;1668897;86;21096;-83
2021/10/04 08:56:39;;;;;;;4.40;2.98;;;;;;;25.65;23.47;102351.34;1668589;86;21086;-82
2021/10/04 08:59:05;;;;;;;23.65;3.17;;;;;;;25.93;23.40;102350.54;1665933;85;21410;-85
2021/10/04 09:01:32;;;;;;;4.85;3.08;;;;;;;25.96;23.42;102351.28;1663997;85;21511;-86
2021/10/04 09:04:00;;;;;;;8.18;3.12;;;;;;;26.08;23.34;102349.84;1641312;86;21333;-84
2021/10/04 09:06:34;;;;;;;8.00;2.80;;;;;;;26.07;23.25;102349.03;1642194;86;21479;-86
2021/10/04 09:09:04;;;;;;;6.00;3.17;;;;;;;26.16;23.11;102355.37;1593557;89;21110;-85
2021/10/04 09:11:35;;;;;;;10.40;2.70;;;;;;;25.77;23.16;102346.02;1605731;89;20991;-84
2021/10/04 09:14:12;;;;;;;6.97;2.80;;;;;;;25.22;23.02;102344.25;1610614;89;21082;-85
2021/10/04 09:17:10;;;;;;;4.55;2.55;;;;;;;25.06;23.66;102340.48;1610512;89;21086;-84
2021/10/04 09:19:42;;;;;;;5.83;2.65;;;;;;;25.08;23.70;102339.58;1611252;88;21078;-84
2021/10/04 09:22:19;;;;;;;6.30;2.75;;;;;;;24.67;23.48;102334.28;1618966;88;21078;-87
2021/10/04 09:25:00;;;;;;;4.87;2.33;;;;;;;24.24;24.21;102332.78;1557066;91;21218;-84
2021/10/04 09:27:39;;;;;;;6.55;2.65;;;;;;;24.16;24.43;102329.95;1565537;89;21329;-85
2021/10/04 09:30:26;;;;;;;8.88;2.35;;;;;;;24.16;23.93;102329.95;1574459;90;21177;-86
2021/10/04 09:32:57;;;;;;;9.13;2.55;;;;;;;23.50;24.30;102333.48;1568247;91;21032;-83
2021/10/04 09:35:32;;;;;;;7.12;2.77;;;;;;;22.92;25.26;102343.04;1560011;91;21101;-85
2021/10/04 09:38:06;;;;;;;4.72;2.33;;;;;;;22.60;25.77;102324.59;1562845;91;21129;-85
2021/10/04 09:40:46;;;;;;;8.45;2.77;;;;;;;22.45;26.03;102329.20;1573689;91;21074;-92
2021/10/04 09:43:28;;;;;;;4.45;2.55;;;;;;;21.88;26.71;102327.49;1574430;90;21738;-88
2021/10/04 09:46:05;;;;;;;13.10;6.15;;;;;;;21.44;26.59;102329.92;1515851;94;21191;-86
2021/10/04 09:48:32;;;;;;;9.58;4.83;;;;;;;20.60;27.04;102328.74;1491612;95;21138;-87
2021/10/04 09:51:17;;;;;;;8.70;2.40;;;;;;;20.08;27.83;102331.48;1491791;96;21082;-87
2021/10/04 09:54:10;;;;;;;8.85;2.87;;;;;;;19.60;28.67;102318.80;1491434;95;21141;-86
2021/10/04 09:56:38;;;;;;;8.03;3.05;;;;;;;19.25;29.94;102326.80;1491733;95;21137;-85
2021/10/04 09:59:06;;;;;;;6.95;2.52;;;;;;;18.76;30.69;102334.74;1491508;95;21926;-86
2021/10/04 10:01:33;;;;;;;8.50;2.95;;;;;;;18.41;31.12;102328.66;1490708;95;21067;-84
2021/10/04 10:04:00;;;;;;;17.98;3.25;;;;;;;18.30;31.32;102321.02;1491720;95;21598;-87
2021/10/04 10:06:27;;;;;;;8.63;2.50;;;;;;;18.11;30.16;102326.13;1520906;93;21176;-85
2021/10/04 10:08:54;;;;;;;5.42;2.35;;;;;;;17.81;30.50;102331.73;1532959;93;21340;-86
2021/10/04 10:11:23;;;;;;;4.20;2.33;;;;;;;17.77;30.84;102337.98;1533436;93;21445;-86
2021/10/04 10:13:50;;;;;;;4.15;2.62;;;;;;;17.60;30.62;102332.16;1532820;93;21107;-86
2021/10/04 10:16:34;;;;;;;8.18;2.40;;;;;;;17.27;31.27;102335.23;1479461;97;21135;-89
2021/10/04 10:19:10;;;;;;;7.22;2.27;;;;;;;17.02;31.63;102335.30;1479526;97;21176;-86
2021/10/04 10:21:38;;;;;;;6.70;2.33;;;;;;;16.88;32.33;102316.39;1513339;92;21587;-87
2021/10/04 10:24:14;;;;;;;6.30;2.27;;;;;;;16.87;32.46;102320.20;1546175;92;21118;-86
2021/10/04 10:26:52;;;;;;;4.97;2.75;;;;;;;16.68;32.80;102316.48;1551041;92;21117;-87
2021/10/04 10:29:21;;;;;;;5.65;2.40;;;;;;;16.54;32.99;102313.34;1542551;93;21053;-87
2021/10/04 10:31:58;;;;;;;9.45;3.20;;;;;;;16.43;33.65;102309.42;1537330;91;21122;-86
2021/10/04 10:34:36;;;;;;;5.95;2.70;;;;;;;16.40;34.18;102312.66;1535769;93;21149;-86
2021/10/04 10:37:10;;;;;;;8.30;2.80;;;;;;;16.40;33.53;102314.02;1535548;93;22220;-85
2021/10/04 10:39:53;;;;;;;7.53;2.77;;;;;;;16.31;34.66;102313.11;1506076;95;21139;-86
2021/10/04 10:42:33;;;;;;;12.15;3.27;;;;;;;16.35;34.73;102311.55;1460248;96;21061;-87
2021/10/04 10:45:05;;;;;;;13.85;3.10;;;;;;;16.47;34.41;102286.89;1424410;100;21103;-86
2021/10/04 10:47:42;;;;;;;11.43;3.42;;;;;;;16.46;35.09;102293.94;1424144;100;21563;-85
2021/10/04 10:50:17;;;;;;;9.90;3.20;;;;;;;16.48;34.93;102287.71;1424292;100;21361;-85
2021/10/04 10:52:47;;;;;;;13.83;3.33;;;;;;;16.48;34.93;102287.71;1424459;100;21172;-87
2021/10/04 10:55:24;;;;;;;15.23;4.42;;;;;;;16.52;34.54;102286.10;1424254;100;21101;-86
2021/10/04 10:58:04;;;;;;;13.30;4.00;;;;;;;16.73;34.51;102275.66;1424577;100;21164;-86
2021/10/04 11:00:41;;;;;;;13.65;3.10;;;;;;;16.73;34.51;102275.66;1424166;100;21125;-86
2021/10/04 11:03:20;;;;;;;10.40;3.05;;;;;;;16.88;34.07;102272.82;1424304;100;21421;-88
2021/10/04 11:05:57;;;;;;;23.55;8.25;;;;;;;16.93;34.14;102283.21;1424143;100;21148;-79
2021/10/04 11:08:47;;;;;;;13.35;4.40;;;;;;;16.77;33.77;102280.92;1424393;100;22000;-80
2021/10/04 11:11:19;;;;;;;14.07;2.90;;;;;;;16.62;34.00;102276.69;1424401;100;21137;-81
2021/10/04 11:14:13;;;;;;;12.80;2.95;;;;;;;16.62;34.36;102279.41;1448645;98;21052;-80
2021/10/04 11:16:46;;;;;;;10.95;4.42;;;;;;;16.61;34.38;102275.57;1442462;98;21170;-79
2021/10/04 11:19:28;;;;;;;6.62;3.20;;;;;;;16.63;34.56;102267.97;1413499;99;21131;-79
2021/10/04 11:21:55;;;;;;;7.12;3.02;;;;;;;16.60;34.33;102265.23;1433393;100;21156;-80